Time;durP1;ratioP1;P1;durP2;ratioP2;P2;SDS_P1;SDS_P2;PMS_P1;PMS_P2;Temp;Humidity;BMP_temperature;BMP_pressure;BME280_temperature;BME280_humidity;BME280_pressure;Samples;Min_cycle;Max_cycle;Signal;HPM_P1;HPM_P2
2021/11/20 00:01:48;;;;;;;;;6.00;6.00;;;;;20.51;41.58;102471.16;5097292;27;46489;-50
2021/11/20 00:04:13;;;;;;;;;7.25;6.25;;;;;20.50;41.42;102471.19;5097486;27;45480;-49
2021/11/20 00:06:43;;;;;;;;;4.50;3.75;;;;;20.51;41.69;102480.84;5097335;27;45333;-44
2021/11/20 00:09:13;;;;;;;;;6.50;6.50;;;;;20.50;41.47;102469.44;5097603;27;45616;-53
2021/11/20 00:11:42;;;;;;;;;10.50;7.00;;;;;20.48;41.39;102465.13;5096998;27;45391;-53
2021/11/20 00:14:10;;;;;;;;;6.00;5.25;;;;;20.50;41.92;102468.56;5097244;27;45386;-51
2021/11/20 00:16:37;;;;;;;;;7.50;6.75;;;;;20.48;41.54;102471.25;5097351;27;45365;-52
2021/11/20 00:19:03;;;;;;;;;7.75;6.00;;;;;20.45;41.82;102463.44;5097506;27;45416;-58
2021/11/20 00:21:40;;;;;;;;;6.50;5.50;;;;;20.48;41.49;102459.84;5097325;27;46120;-59
2021/11/20 00:24:17;;;;;;;;;7.75;6.50;;;;;20.45;41.74;102457.31;5097275;27;45373;-55
2021/11/20 00:26:43;;;;;;;;;7.50;6.50;;;;;20.46;42.03;102462.53;5097374;27;45335;-56
2021/11/20 00:31:45;;;;;;;;;5.00;5.00;;;;;20.43;41.57;102446.81;5096820;27;45342;-59
2021/11/20 00:34:13;;;;;;;;;5.50;5.50;;;;;20.45;42.04;102449.41;5096845;27;45411;-56
2021/11/20 00:36:39;;;;;;;;;7.00;5.50;;;;;20.45;41.52;102455.53;5097021;27;45342;-58
2021/11/20 00:39:09;;;;;;;;;4.75;4.75;;;;;20.44;41.34;102445.06;5097374;27;45585;-59
2021/11/20 00:41:34;;;;;;;;;7.00;7.00;;;;;20.43;41.91;102448.59;5096655;27;45362;-56
2021/11/20 00:44:00;;;;;;;;;6.75;6.75;;;;;20.42;42.10;102442.44;5097185;27;45367;-59
2021/11/20 00:46:29;;;;;;;;;8.75;5.25;;;;;20.43;42.10;102448.59;5078814;27;45359;-58
2021/11/20 00:48:55;;;;;;;;;5.75;5.75;;;;;20.43;42.21;102444.19;5097165;27;45457;-45
2021/11/20 00:51:23;;;;;;;;;5.00;5.00;;;;;20.42;42.08;102445.09;5096664;27;45578;-42
2021/11/20 00:53:49;;;;;;;;;4.50;4.00;;;;;20.43;41.85;102443.34;5099615;27;45884;-52
2021/11/20 00:56:16;;;;;;;;;4.50;3.00;;;;;20.43;42.00;102440.69;5100625;27;45264;-50
2021/11/20 00:58:43;;;;;;;;;5.00;4.25;;;;;20.42;41.78;102433.69;5100771;27;45361;-59
2021/11/20 01:01:14;;;;;;;;;6.00;5.00;;;;;20.39;41.73;102430.25;5081727;27;48390;-60
2021/11/20 01:03:39;;;;;;;;;5.00;5.00;;;;;20.39;41.63;102424.97;5100471;27;45772;-57
2021/11/20 01:06:05;;;;;;;;;3.50;2.50;;;;;20.39;41.70;102419.72;5100326;27;45426;-53
2021/11/20 01:08:35;;;;;;;;;5.25;4.25;;;;;20.37;41.39;102418.88;5100997;27;45318;-59
2021/11/20 01:11:09;;;;;;;;;5.00;5.00;;;;;20.39;41.89;102414.44;5100504;27;45541;-60
2021/11/20 01:13:36;;;;;;;;;6.00;4.00;;;;;20.39;41.58;102416.22;5100130;27;45218;-57
2021/11/20 01:16:05;;;;;;;;;5.50;5.25;;;;;20.38;41.79;102417.13;5100586;27;45445;-58
2021/11/20 01:18:32;;;;;;;;;5.00;4.00;;;;;20.37;41.70;102411.00;5082295;27;45438;-58
2021/11/20 01:20:57;;;;;;;;;6.25;5.00;;;;;20.37;41.80;102413.63;5099851;27;45238;-58
2021/11/20 01:23:25;;;;;;;;;4.75;4.50;;;;;20.35;41.92;102406.69;5099994;27;45356;-57
2021/11/20 01:25:51;;;;;;;;;4.75;4.00;;;;;20.37;42.15;102410.13;5081736;27;45254;-55
2021/11/20 01:28:18;;;;;;;;;4.50;4.50;;;;;20.36;42.18;102408.41;5100172;27;45339;-59
2021/11/20 01:30:44;;;;;;;;;6.75;5.25;;;;;20.35;42.27;102406.69;5099810;27;46554;-55
2021/11/20 01:33:10;;;;;;;;;4.00;4.00;;;;;20.32;41.97;102396.22;5100034;27;45469;-59
2021/11/20 01:35:36;;;;;;;;;4.50;4.50;;;;;20.35;41.61;102399.63;5099907;27;45261;-55
2021/11/20 01:38:02;;;;;;;;;4.00;4.00;;;;;20.34;42.00;102392.63;5100428;27;45243;-57
2021/11/20 01:40:31;;;;;;;;;4.75;4.75;;;;;20.35;41.89;102390.88;5099567;27;45424;-59
2021/11/20 01:42:56;;;;;;;;;4.75;4.75;;;;;20.31;42.13;102389.25;5099700;27;45343;-57
2021/11/20 01:45:33;;;;;;;;;5.50;5.50;;;;;20.33;41.81;102393.56;5099825;27;45405;-50
2021/11/20 01:48:33;;;;;;;;;6.50;6.00;;;;;20.33;41.76;102400.59;5099777;27;45400;-53
2021/11/20 01:51:13;;;;;;;;;5.00;4.25;;;;;20.33;41.99;102393.56;5099641;27;46226;-54
2021/11/20 01:54:01;;;;;;;;;4.00;4.00;;;;;20.32;41.68;102383.06;5099687;27;45416;-56
2021/11/20 01:56:30;;;;;;;;;6.50;5.50;;;;;20.31;41.84;102374.31;5099646;27;45291;-59
2021/11/20 01:59:14;;;;;;;;;4.00;4.00;;;;;20.31;41.91;102383.97;5099901;27;45711;-54
2021/11/20 02:01:48;;;;;;;;;5.75;4.00;;;;;20.27;41.86;102380.56;5099338;27;46151;-51
2021/11/20 02:04:30;;;;;;;;;5.75;4.75;;;;;20.31;41.93;102384.84;5096954;27;45274;-49
2021/11/20 02:07:04;;;;;;;;;7.00;5.00;;;;;20.30;42.30;102372.59;5099448;27;45471;-53
2021/11/20 02:09:42;;;;;;;;;4.00;4.00;;;;;20.30;42.36;102371.72;5099594;27;45514;-54
2021/11/20 02:12:18;;;;;;;;;4.50;4.00;;;;;20.30;42.12;102376.97;5099235;27;45570;-49
2021/11/20 02:14:45;;;;;;;;;5.25;4.25;;;;;20.29;42.19;102376.13;5099297;27;45235;-51
2021/11/20 02:17:17;;;;;;;;;4.25;4.25;;;;;20.25;42.41;102366.59;5099383;27;45242;-45
2021/11/20 02:19:47;;;;;;;;;5.75;4.00;;;;;20.28;42.24;102363.88;5099438;27;45263;-49
2021/11/20 02:22:36;;;;;;;;;4.00;4.00;;;;;20.28;42.09;102377.03;5099188;27;46519;-50
2021/11/20 02:25:01;;;;;;;;;4.00;4.00;;;;;20.28;41.97;102370.94;5098865;27;45781;-43
2021/11/20 02:27:29;;;;;;;;;4.50;3.00;;;;;20.26;42.17;102370.94;5099219;27;45323;-55
2021/11/20 02:30:16;;;;;;;;;5.00;5.00;;;;;20.27;42.29;102372.69;5099295;27;45484;-51
2021/11/20 02:32:43;;;;;;;;;4.00;4.00;;;;;20.27;42.38;102372.69;5098858;27;46771;-56
2021/11/20 02:35:09;;;;;;;;;3.25;3.25;;;;;20.27;41.99;102367.41;5098939;27;45890;-59
2021/11/20 02:37:35;;;;;;;;;4.25;4.25;;;;;20.26;42.17;102360.41;5098394;27;45390;-53
2021/11/20 02:40:03;;;;;;;;;3.75;3.75;;;;;20.22;42.10;102350.91;5098986;27;45350;-58
2021/11/20 02:42:28;;;;;;;;;4.00;4.00;;;;;20.22;42.02;102348.28;5098722;27;46751;-59
2021/11/20 02:44:53;;;;;;;;;4.00;3.25;;;;;20.19;42.51;102346.56;5098803;27;45194;-54
2021/11/20 02:47:30;;;;;;;;;3.50;3.50;;;;;20.24;42.13;102354.31;5098832;27;45182;-42
2021/11/20 02:49:56;;;;;;;;;3.25;3.25;;;;;20.24;42.00;102349.94;5098914;27;45240;-51
2021/11/20 02:52:22;;;;;;;;;3.25;3.25;;;;;20.25;42.50;102353.44;5080249;27;48399;-52
2021/11/20 02:54:50;;;;;;;;;4.75;3.00;;;;;20.22;42.20;102343.00;5098499;27;45445;-52
2021/11/20 02:57:21;;;;;;;;;5.50;4.75;;;;;20.20;42.40;102334.28;5098712;27;45313;-57
2021/11/20 02:59:47;;;;;;;;;4.00;4.00;;;;;20.24;42.51;102343.78;5098592;27;45462;-57
2021/11/20 03:02:13;;;;;;;;;5.50;4.50;;;;;20.23;42.17;102344.69;5080008;27;45371;-56
2021/11/20 03:04:39;;;;;;;;;2.00;2.00;;;;;20.20;42.40;102329.03;5098525;27;45914;-45
2021/11/20 03:07:05;;;;;;;;;4.00;4.00;;;;;20.23;41.91;102326.28;5098689;27;45374;-56
2021/11/20 03:09:32;;;;;;;;;4.25;4.00;;;;;20.22;41.94;102325.44;5098730;27;45409;-45
2021/11/20 03:11:59;;;;;;;;;4.25;3.25;;;;;20.22;42.08;102327.22;5079839;27;47321;-52
2021/11/20 03:14:25;;;;;;;;;5.50;4.50;;;;;20.18;42.21;102320.31;5098160;27;45737;-53
2021/11/20 03:16:57;;;;;;;;;5.75;4.00;;;;;20.21;42.22;102320.22;5079674;27;45182;-52
2021/11/20 03:19:27;;;;;;;;;3.00;3.00;;;;;20.20;42.40;102319.34;5098490;27;45197;-53
2021/11/20 03:22:02;;;;;;;;;3.50;3.50;;;;;20.21;42.57;102314.97;5098041;27;45525;-52
2021/11/20 03:24:29;;;;;;;;;4.75;4.50;;;;;20.19;42.34;102306.25;5098140;27;45788;-58
2021/11/20 03:26:57;;;;;;;;;4.00;4.00;;;;;20.20;42.07;102302.69;5079914;27;45426;-54
2021/11/20 03:29:24;;;;;;;;;3.75;3.75;;;;;20.18;41.93;102300.09;5098235;27;45541;-56
2021/11/20 03:31:52;;;;;;;;;4.00;4.00;;;;;20.15;42.02;102292.31;5097975;27;47076;-55
2021/11/20 03:34:18;;;;;;;;;4.25;3.50;;;;;20.20;42.12;102297.44;5097876;27;45347;-54
2021/11/20 03:36:44;;;;;;;;;4.50;3.00;;;;;20.18;42.29;102291.34;5098150;27;45411;-59
2021/11/20 03:39:10;;;;;;;;;5.00;4.00;;;;;20.17;42.09;102287.88;5098467;27;45471;-54
2021/11/20 03:41:36;;;;;;;;;3.25;3.25;;;;;20.16;42.30;102278.25;5097941;27;45453;-59
2021/11/20 03:44:02;;;;;;;;;3.00;3.00;;;;;20.16;42.13;102282.63;5097883;27;45429;-59
2021/11/20 03:46:27;;;;;;;;;5.00;2.75;;;;;20.13;42.27;102275.69;5097861;27;45243;-56
2021/11/20 03:48:53;;;;;;;;;4.00;3.25;;;;;20.14;42.04;102271.28;5098114;27;45303;-48
2021/11/20 03:51:18;;;;;;;;;5.00;5.00;;;;;20.14;41.96;102276.53;5097592;27;46410;-57
2021/11/20 03:53:44;;;;;;;;;4.00;2.75;;;;;20.16;42.15;102266.84;5097695;27;45319;-54
2021/11/20 03:56:10;;;;;;;;;3.75;3.75;;;;;20.14;42.44;102259.00;5098069;27;45174;-58
2021/11/20 03:58:37;;;;;;;;;3.00;3.00;;;;;20.15;42.56;102260.72;5097986;27;45616;-53
2021/11/20 04:01:06;;;;;;;;;3.75;2.75;;;;;20.14;42.27;102258.13;5097434;27;45686;-52
2021/11/20 04:03:33;;;;;;;;;3.00;3.00;;;;;20.14;42.31;102260.75;5079397;27;45849;-58
2021/11/20 04:05:58;;;;;;;;;4.00;4.00;;;;;20.11;42.25;102255.59;5097399;27;45352;-55
2021/11/20 04:08:26;;;;;;;;;3.00;2.00;;;;;20.13;42.50;102264.28;5097671;27;45512;-58
2021/11/20 04:10:52;;;;;;;;;4.50;3.00;;;;;20.07;42.46;102250.44;5097289;27;45654;-56
2021/11/20 04:13:18;;;;;;;;;2.25;2.25;;;;;20.10;42.32;102244.19;5097265;27;45475;-58
2021/11/20 04:15:45;;;;;;;;;3.25;3.25;;;;;20.12;42.04;102246.81;5097535;27;45261;-53
2021/11/20 04:18:10;;;;;;;;;3.00;2.00;;;;;20.12;42.05;102242.38;5097936;27;45578;-55
2021/11/20 04:20:36;;;;;;;;;3.50;3.00;;;;;20.11;42.25;102234.53;5097050;27;46451;-46
2021/11/20 04:23:05;;;;;;;;;3.00;2.75;;;;;20.08;41.87;102231.09;5097223;27;45252;-47
2021/11/20 04:25:32;;;;;;;;;3.00;3.00;;;;;20.10;42.20;102232.81;5097197;27;45520;-49
2021/11/20 04:27:58;;;;;;;;;2.50;2.00;;;;;20.10;42.65;102230.19;5096698;27;45488;-45
2021/11/20 04:30:23;;;;;;;;;3.00;3.00;;;;;20.10;42.55;102232.81;5097135;27;45432;-44
2021/11/20 04:32:50;;;;;;;;;2.25;2.25;;;;;20.08;42.24;102222.31;5097073;27;45322;-47
2021/11/20 04:35:17;;;;;;;;;1.75;1.75;;;;;20.06;41.89;102213.63;5097167;27;45458;-51
2021/11/20 04:37:43;;;;;;;;;2.00;2.00;;;;;20.08;42.66;102220.56;5097796;27;45247;-46
2021/11/20 04:40:10;;;;;;;;;2.00;2.00;;;;;20.09;42.23;102226.69;5097174;27;45484;-42
2021/11/20 04:42:35;;;;;;;;;2.50;2.00;;;;;20.07;41.94;102224.09;5096985;27;45334;-47
2021/11/20 04:45:01;;;;;;;;;1.50;1.00;;;;;20.07;42.44;102218.84;5096991;27;45337;-50
2021/11/20 04:47:26;;;;;;;;;2.00;2.00;;;;;20.06;42.33;102217.13;5097340;27;45553;-55
2021/11/20 04:49:52;;;;;;;;;2.00;2.00;;;;;20.06;42.13;102219.75;5096633;27;45479;-58
2021/11/20 04:52:18;;;;;;;;;2.50;2.50;;;;;20.05;42.29;102218.03;5096640;27;45347;-55
2021/11/20 04:54:44;;;;;;;;;2.00;2.00;;;;;20.04;42.21;102208.41;5097064;27;45373;-58
2021/11/20 04:57:09;;;;;;;;;3.00;3.00;;;;;20.03;42.13;102213.72;5097292;27;45624;-58
2021/11/20 04:59:35;;;;;;;;;1.25;1.25;;;;;20.02;42.43;102206.72;5096554;27;46420;-54
2021/11/20 05:02:00;;;;;;;;;3.00;2.00;;;;;20.02;42.19;102204.94;5096374;27;45481;-58
2021/11/20 05:04:26;;;;;;;;;1.00;1.00;;;;;20.01;42.37;102197.97;5096736;27;45284;-55
2021/11/20 05:06:51;;;;;;;;;3.50;2.00;;;;;20.01;42.36;102197.97;5096542;27;45272;-56
2021/11/20 05:09:17;;;;;;;;;2.00;2.00;;;;;20.03;42.39;102200.56;5078125;27;47614;-57
2021/11/20 05:11:44;;;;;;;;;3.50;2.00;;;;;20.02;42.20;102202.31;5078387;27;45559;-57
2021/11/20 05:14:11;;;;;;;;;0.00;0.00;;;;;20.03;42.02;102200.56;5097036;27;45664;-58
2021/11/20 05:16:39;;;;;;;;;2.00;2.00;;;;;20.01;42.34;102197.97;5096824;27;45366;-58
2021/11/20 05:19:06;;;;;;;;;2.00;2.00;;;;;19.96;42.09;102189.38;5096401;27;46349;-58
2021/11/20 05:21:32;;;;;;;;;1.25;1.25;;;;;20.00;42.04;102206.78;5096211;27;45299;-57
2021/11/20 05:23:58;;;;;;;;;1.25;1.25;;;;;19.97;41.79;102196.34;5096571;27;45265;-57
2021/11/20 05:26:24;;;;;;;;;2.25;2.00;;;;;20.00;42.12;102196.28;5096562;27;45184;-53
2021/11/20 05:29:16;;;;;;;;;3.25;2.00;;;;;20.00;42.13;102193.63;5096287;27;45427;-48
2021/11/20 05:31:42;;;;;;;;;2.00;2.00;;;;;20.00;41.96;102195.38;5096501;27;45253;-56
2021/11/20 05:34:08;;;;;;;;;2.00;2.00;;;;;19.97;41.91;102185.84;5078188;27;45228;-50
2021/11/20 05:36:35;;;;;;;;;3.75;1.75;;;;;20.01;41.60;102191.84;5096457;27;45585;-47
2021/11/20 05:39:04;;;;;;;;;1.00;1.00;;;;;20.01;42.10;102187.44;5079282;27;47702;-51
2021/11/20 05:41:30;;;;;;;;;2.00;2.00;;;;;20.03;42.24;102182.16;5099569;27;45402;-42
2021/11/20 05:43:57;;;;;;;;;1.00;1.00;;;;;20.04;41.79;102175.97;5099946;27;45479;-56
2021/11/20 05:46:24;;;;;;;;;1.00;1.00;;;;;20.03;41.72;102179.50;5099900;27;45522;-50
2021/11/20 05:48:50;;;;;;;;;3.00;2.00;;;;;20.05;42.03;102178.53;5099422;27;47505;-49
2021/11/20 05:51:15;;;;;;;;;2.00;2.00;;;;;20.06;42.22;102184.69;5099945;27;45239;-48
2021/11/20 05:53:41;;;;;;;;;1.50;1.25;;;;;20.11;41.95;102189.81;5099807;27;45437;-46
2021/11/20 05:56:06;;;;;;;;;1.00;1.00;;;;;20.10;42.25;102183.66;5099876;27;45653;-40
2021/11/20 05:58:32;;;;;;;;;3.00;2.75;;;;;20.06;42.17;102175.00;5099465;27;46262;-48
2021/11/20 06:01:01;;;;;;;;;1.25;1.00;;;;;20.12;42.07;102188.91;5099133;27;45423;-44
2021/11/20 06:03:28;;;;;;;;;2.75;2.75;;;;;20.09;42.00;102168.78;5099654;27;45351;-46
2021/11/20 06:05:54;;;;;;;;;2.00;2.00;;;;;20.09;42.10;102179.31;5099606;27;45296;-46
2021/11/20 06:08:21;;;;;;;;;3.00;3.00;;;;;20.10;42.00;102178.41;5099192;27;46296;-45
2021/11/20 06:10:48;;;;;;;;;2.00;2.00;;;;;20.10;41.74;102175.75;5080715;27;46099;-45
2021/11/20 06:13:14;;;;;;;;;2.50;2.00;;;;;20.08;41.73;102183.72;5099669;27;45400;-46
2021/11/20 06:15:41;;;;;;;;;3.75;2.00;;;;;20.05;42.37;102172.44;5099459;27;45347;-44
2021/11/20 06:18:09;;;;;;;;;2.75;2.75;;;;;20.05;42.13;102178.53;5099082;27;45267;-42
2021/11/20 06:20:36;;;;;;;;;2.00;1.00;;;;;20.04;42.06;102175.97;5098863;27;45343;-41
2021/11/20 06:23:02;;;;;;;;;2.00;2.00;;;;;20.04;41.81;102173.34;5099304;27;45279;-46
2021/11/20 06:25:29;;;;;;;;;3.50;1.25;;;;;20.02;42.16;102173.38;5099159;27;45478;-46
2021/11/20 06:27:54;;;;;;;;;2.00;1.75;;;;;20.01;41.90;102179.53;5098853;27;46301;-43
2021/11/20 06:30:22;;;;;;;;;2.00;2.00;;;;;20.02;41.76;102183.91;5080539;27;45541;-46
2021/11/20 06:32:48;;;;;;;;;1.50;1.50;;;;;20.01;41.77;102182.16;5099294;27;45318;-58
2021/11/20 06:35:17;;;;;;;;;3.00;2.75;;;;;20.00;41.99;102179.59;5099665;27;45596;-49
2021/11/20 06:37:45;;;;;;;;;1.00;1.00;;;;;20.00;41.80;102182.22;5098804;27;45410;-52
2021/11/20 06:40:19;;;;;;;;;2.00;2.00;;;;;19.98;42.21;102176.16;5098693;27;45312;-48
2021/11/20 06:42:46;;;;;;;;;1.50;1.50;;;;;19.98;42.22;102181.41;5099303;27;45371;-41
2021/11/20 06:45:20;;;;;;;;;2.25;2.25;;;;;19.96;42.37;102178.84;5098972;27;45434;-49
2021/11/20 06:47:46;;;;;;;;;2.00;2.00;;;;;19.93;42.21;102168.41;5098997;27;45393;-52
2021/11/20 06:50:12;;;;;;;;;2.00;2.00;;;;;19.95;41.89;102171.00;5097846;27;45330;-54
2021/11/20 06:52:38;;;;;;;;;2.25;2.25;;;;;19.96;42.35;102167.44;5098686;27;45451;-54
2021/11/20 06:55:06;;;;;;;;;3.25;3.25;;;;;19.95;42.33;102166.59;5098797;27;45347;-49
2021/11/20 07:00:26;;;;;;;;;3.00;3.00;;;;;19.94;42.29;102164.88;5098202;27;45845;-44
2021/11/20 07:02:59;;;;;;;;;3.00;3.00;;;;;19.92;42.10;102166.69;5098523;27;45232;-49
2021/11/20 07:05:26;;;;;;;;;2.00;2.00;;;;;19.91;42.21;102159.69;5098400;27;45600;-43
2021/11/20 07:07:52;;;;;;;;;2.25;2.25;;;;;19.92;42.19;102161.41;5098271;27;46083;-51
2021/11/20 07:10:21;;;;;;;;;2.00;2.00;;;;;19.88;41.71;102150.13;5098607;27;45385;-53
2021/11/20 07:12:48;;;;;;;;;1.00;1.00;;;;;19.88;41.79;102146.66;5098577;27;45221;-51
2021/11/20 07:15:13;;;;;;;;;3.25;3.25;;;;;19.88;42.12;102150.13;5098515;27;45235;-53
2021/11/20 07:17:39;;;;;;;;;1.75;1.75;;;;;19.87;42.25;102156.31;5097982;27;46818;-50
2021/11/20 07:20:06;;;;;;;;;1.25;1.25;;;;;19.87;41.94;102152.81;5098076;27;45340;-47
2021/11/20 07:22:33;;;;;;;;;3.00;3.00;;;;;19.88;42.12;102157.19;5079888;27;45421;-48
2021/11/20 07:24:58;;;;;;;;;2.00;2.00;;;;;19.85;42.21;102152.81;5098302;27;45325;-46
2021/11/20 07:27:24;;;;;;;;;4.00;2.25;;;;;19.84;41.68;102152.88;5097874;27;45326;-46
2021/11/20 07:29:50;;;;;;;;;2.00;2.00;;;;;19.87;42.20;102160.72;5098207;27;45400;-45
2021/11/20 07:32:15;;;;;;;;;4.00;3.00;;;;;19.80;41.80;102145.97;5098060;27;45348;-49
2021/11/20 07:34:40;;;;;;;;;3.00;3.00;;;;;19.86;41.98;102159.00;5098220;27;45576;-43
2021/11/20 07:37:07;;;;;;;;;3.00;3.00;;;;;19.84;41.78;102169.53;5097580;27;46071;-47
2021/11/20 07:39:33;;;;;;;;;2.25;2.00;;;;;19.85;41.86;102167.75;5097823;27;45808;-46
2021/11/20 07:41:59;;;;;;;;;4.00;2.25;;;;;19.85;41.89;102178.28;5097838;27;45320;-45
2021/11/20 07:44:24;;;;;;;;;2.00;2.00;;;;;19.85;42.01;102170.38;5097971;27;45532;-43
2021/11/20 07:46:50;;;;;;;;;2.00;2.00;;;;;19.83;42.02;102161.69;5097808;27;45394;-44
2021/11/20 07:49:15;;;;;;;;;6.00;3.00;;;;;19.81;42.25;102152.97;5079552;27;45210;-47
2021/11/20 07:51:42;;;;;;;;;2.25;2.25;;;;;19.82;41.74;102162.59;5079487;27;45419;-51
2021/11/20 07:54:08;;;;;;;;;4.00;2.75;;;;;19.82;42.22;102173.09;5079924;27;45589;-44
2021/11/20 07:56:39;;;;;;;;;2.00;2.00;;;;;19.83;41.77;102175.72;5097659;27;45968;-42
2021/11/20 07:59:04;;;;;;;;;3.50;3.50;;;;;19.81;42.09;102169.63;5097650;27;45840;-45
2021/11/20 08:01:30;;;;;;;;;3.50;3.00;;;;;19.82;42.10;102168.72;5096952;27;45395;-48
2021/11/20 08:03:55;;;;;;;;;2.00;2.00;;;;;19.83;42.10;102172.19;5097259;27;45393;-51
2021/11/20 08:06:22;;;;;;;;;3.00;3.00;;;;;19.79;42.05;102166.19;5078933;27;47628;-40
2021/11/20 08:08:47;;;;;;;;;2.00;2.00;;;;;19.78;42.21;102165.34;5097511;27;45359;-48
2021/11/20 08:11:13;;;;;;;;;4.25;3.00;;;;;19.83;42.06;102180.09;5097627;27;45610;-47
2021/11/20 08:13:38;;;;;;;;;3.50;2.00;;;;;19.78;41.63;102169.72;5097864;27;45402;-43
2021/11/20 08:16:04;;;;;;;;;1.25;1.25;;;;;19.81;41.97;102168.75;5097450;27;46293;-48
2021/11/20 08:18:29;;;;;;;;;4.25;4.00;;;;;19.82;42.30;102181.00;5097069;27;45407;-54
2021/11/20 08:20:55;;;;;;;;;2.50;2.50;;;;;19.85;42.02;102175.66;5097061;27;45318;-51
2021/11/20 08:23:20;;;;;;;;;3.00;3.00;;;;;19.85;42.08;102163.34;5097751;27;45311;-54
2021/11/20 08:25:47;;;;;;;;;2.50;2.50;;;;;19.88;42.10;102162.44;5078658;27;48326;-54
2021/11/20 08:28:15;;;;;;;;;3.00;3.00;;;;;19.93;42.01;102163.16;5097174;27;45247;-50
2021/11/20 08:30:42;;;;;;;;;3.00;3.00;;;;;19.96;41.90;102163.06;5097209;27;45415;-55
2021/11/20 08:33:08;;;;;;;;;2.00;2.00;;;;;20.00;42.08;102164.69;5097005;27;45460;-50
2021/11/20 08:35:36;;;;;;;;;4.00;4.00;;;;;20.05;41.96;102152.22;5096950;27;46779;-53
2021/11/20 08:38:03;;;;;;;;;2.75;2.75;;;;;20.10;41.59;102151.22;5096921;27;45296;-49
2021/11/20 08:40:30;;;;;;;;;2.25;2.25;;;;;20.15;41.74;102144.03;5096737;27;45399;-51
2021/11/20 08:42:57;;;;;;;;;2.50;2.50;;;;;20.19;41.64;102143.88;5097107;27;45649;-57
2021/11/20 08:45:25;;;;;;;;;2.00;2.00;;;;;20.25;41.63;102142.81;5096969;27;45508;-54
2021/11/20 08:47:53;;;;;;;;;2.25;2.25;;;;;20.29;41.88;102139.16;5097223;27;45374;-54
2021/11/20 08:50:40;;;;;;;;;3.00;2.50;;;;;20.32;41.72;102131.19;5096859;27;45437;-53
2021/11/20 08:53:06;;;;;;;;;5.00;3.00;;;;;20.38;41.46;102125.69;5097089;27;45411;-46
2021/11/20 08:55:33;;;;;;;;;4.00;3.00;;;;;20.43;41.23;102124.69;5096732;27;46635;-57
2021/11/20 08:57:58;;;;;;;;;2.00;1.50;;;;;20.44;41.69;102116.72;5078409;27;45870;-57
2021/11/20 09:00:41;;;;;;;;;3.00;3.00;;;;;20.51;41.50;102122.63;5097001;27;45465;-50
2021/11/20 09:03:22;;;;;;;;;2.50;2.50;;;;;20.53;41.56;102116.38;5096869;27;45463;-56
2021/11/20 09:05:56;;;;;;;;;5.00;2.75;;;;;20.57;41.61;102122.41;5095497;27;45399;-53
2021/11/20 09:08:26;;;;;;;;;4.00;3.00;;;;;20.59;41.28;102119.75;5097109;27;45383;-55
2021/11/20 09:10:59;;;;;;;;;1.75;1.75;;;;;20.58;41.25;102113.59;5096999;27;45519;-44
2021/11/20 09:13:32;;;;;;;;;2.75;2.50;;;;;20.60;41.57;102111.78;5097893;27;45367;-46
2021/11/20 09:16:06;;;;;;;;;2.00;2.00;;;;;20.63;41.00;102106.41;5100232;27;45386;-49
2021/11/20 09:18:33;;;;;;;;;2.50;1.50;;;;;20.65;41.10;102098.44;5100079;27;45897;-49
2021/11/20 09:20:59;;;;;;;;;3.00;2.50;;;;;20.66;40.78;102101.03;5100132;27;45306;-57
2021/11/20 09:23:25;;;;;;;;;2.50;2.00;;;;;20.67;41.37;102097.44;5100682;27;45484;-50
2021/11/20 09:25:53;;;;;;;;;3.00;3.00;;;;;20.68;40.83;102098.34;5099830;27;46303;-42
2021/11/20 09:28:19;;;;;;;;;3.00;3.00;;;;;20.69;41.34;102106.16;5099838;27;45418;-56
2021/11/20 09:30:50;;;;;;;;;3.00;3.00;;;;;20.71;40.80;102106.13;5099960;27;45424;-51
2021/11/20 09:33:17;;;;;;;;;2.75;2.25;;;;;20.72;40.75;102099.94;5082174;27;45577;-54
2021/11/20 09:35:45;;;;;;;;;3.00;3.00;;;;;20.73;40.82;102095.53;5099831;27;45893;-47
2021/11/20 09:38:12;;;;;;;;;3.25;2.25;;;;;20.72;41.00;102094.69;5099816;27;45988;-52
2021/11/20 09:40:42;;;;;;;;;3.00;3.00;;;;;20.74;41.00;102087.59;5099912;27;45256;-56
2021/11/20 09:43:09;;;;;;;;;4.50;3.25;;;;;20.76;40.73;102092.81;5100048;27;45398;-52
2021/11/20 09:45:40;;;;;;;;;3.00;3.00;;;;;20.76;40.67;102093.66;5099611;27;45532;-54
2021/11/20 09:48:16;;;;;;;;;3.00;3.00;;;;;20.77;41.06;102086.66;5099638;27;45357;-45
2021/11/20 09:50:53;;;;;;;;;4.00;4.00;;;;;20.74;40.55;102081.44;5081170;27;45364;-51
2021/11/20 09:53:19;;;;;;;;;4.00;3.00;;;;;20.75;40.84;102086.69;5099931;27;45422;-54
2021/11/20 09:55:53;;;;;;;;;2.00;2.00;;;;;20.77;40.70;102091.91;5099376;27;45693;-58
2021/11/20 09:58:27;;;;;;;;;2.75;2.75;;;;;20.75;41.04;102083.19;5099584;27;45776;-58
2021/11/20 10:01:14;;;;;;;;;4.50;3.25;;;;;20.74;40.55;102084.97;5099481;27;45521;-57
2021/11/20 10:03:48;;;;;;;;;3.75;3.00;;;;;20.74;40.94;102071.78;5099646;27;45755;-47
2021/11/20 10:06:30;;;;;;;;;3.00;3.00;;;;;20.73;41.01;102075.28;5099173;27;45720;-57
2021/11/20 10:09:11;;;;;;;;;2.25;2.25;;;;;20.73;40.98;102074.44;5099647;27;45694;-55
2021/11/20 10:11:48;;;;;;;;;3.50;2.00;;;;;20.73;40.58;102074.44;5099522;27;45435;-55
2021/11/20 10:14:17;;;;;;;;;3.00;2.00;;;;;20.72;41.08;102075.38;5099522;27;45311;-57
2021/11/20 10:16:56;;;;;;;;;2.75;2.75;;;;;20.72;40.42;102073.59;5098957;27;45487;-58
2021/11/20 10:19:27;;;;;;;;;3.00;3.00;;;;;20.70;40.99;102067.53;5099108;27;45781;-53
2021/11/20 10:22:31;;;;;;;;;3.00;3.00;;;;;20.70;40.62;102060.47;5099143;27;45280;-58
2021/11/20 10:25:29;;;;;;;;;3.50;3.50;;;;;20.68;41.01;102059.66;5098589;27;45296;-58
2021/11/20 10:28:02;;;;;;;;;2.00;2.00;;;;;20.68;40.81;102057.03;5098305;27;46624;-56
2021/11/20 10:30:39;;;;;;;;;3.50;3.00;;;;;20.69;40.99;102050.84;5080725;27;45435;-53
2021/11/20 10:33:15;;;;;;;;;3.00;3.00;;;;;20.68;40.84;102054.41;5099180;27;45350;-53
2021/11/20 10:35:42;;;;;;;;;2.75;2.75;;;;;20.66;40.97;102048.34;5099231;27;45786;-50
2021/11/20 10:38:13;;;;;;;;;4.00;4.00;;;;;20.64;40.93;102047.53;5098666;27;45675;-54
2021/11/20 10:40:53;;;;;;;;;3.00;3.00;;;;;20.64;41.34;102046.66;5098664;27;45390;-53
2021/11/20 10:43:30;;;;;;;;;3.75;3.25;;;;;20.62;41.36;102040.59;5098837;27;45382;-51
2021/11/20 10:45:55;;;;;;;;;2.00;2.00;;;;;20.61;40.83;102033.63;5080342;27;45332;-54
2021/11/20 10:48:23;;;;;;;;;1.33;1.33;;;;;20.59;40.86;102025.75;5098533;27;46541;-58
2021/11/20 10:51:12;;;;;;;;;3.00;3.00;;;;;20.58;41.28;102034.56;5098292;27;45424;-57
2021/11/20 10:54:05;;;;;;;;;5.00;3.00;;;;;20.58;40.96;102031.94;5098768;27;45285;-57
2021/11/20 10:56:38;;;;;;;;;3.50;2.00;;;;;20.55;40.84;102030.28;5081010;27;45486;-57
2021/11/20 10:59:50;;;;;;;;;3.00;3.00;;;;;20.54;41.14;102012.75;5098370;27;45412;-57
2021/11/20 11:02:55;;;;;;;;;4.75;4.00;;;;;20.50;40.98;101991.88;5098481;27;45287;-49
2021/11/20 11:05:40;;;;;;;;;3.00;3.00;;;;;20.49;41.14;101992.78;5098346;27;45542;-50
2021/11/20 11:08:26;;;;;;;;;3.25;3.25;;;;;20.50;40.93;101987.47;5097732;27;45343;-53
2021/11/20 11:10:58;;;;;;;;;6.00;4.00;;;;;20.48;40.68;101981.41;5098373;27;45704;-58
2021/11/20 11:13:59;;;;;;;;;5.00;4.00;;;;;20.47;40.74;101984.94;5079904;27;45702;-55
2021/11/20 11:16:29;;;;;;;;;4.25;4.25;;;;;20.44;40.87;101981.56;5098402;27;45341;-52
2021/11/20 11:19:20;;;;;;;;;4.00;4.00;;;;;20.47;41.24;101973.53;5098523;27;45346;-47
2021/11/20 11:21:55;;;;;;;;;4.00;4.00;;;;;20.45;40.83;101964.84;5098003;27;46619;-51
2021/11/20 11:24:45;;;;;;;;;4.50;4.00;;;;;20.45;40.80;101970.13;5098101;27;45595;-48
2021/11/20 11:27:24;;;;;;;;;5.25;4.00;;;;;20.43;41.01;101961.41;5098160;27;45186;-51
2021/11/20 11:30:00;;;;;;;;;3.00;3.00;;;;;20.39;41.24;101945.72;5098340;27;45358;-57
2021/11/20 11:32:30;;;;;;;;;4.75;4.75;;;;;20.41;41.23;101950.06;5098016;27;46436;-55
2021/11/20 11:35:00;;;;;;;;;2.75;2.75;;;;;20.40;41.36;101936.03;5097728;27;45382;-49
2021/11/20 11:37:59;;;;;;;;;3.75;3.75;;;;;20.38;41.15;101925.56;5097847;27;45362;-46
2021/11/20 11:40:51;;;;;;;;;4.50;4.00;;;;;20.36;40.90;101921.28;5098055;27;45375;-54
2021/11/20 11:43:35;;;;;;;;;3.00;3.00;;;;;20.38;40.86;101920.31;5097800;27;46648;-48